sensor_id;sensor_type;location;lat;lon;timestamp;temperature;humidity
18412;DHT22;27097;51.738;19.472;2023-04-16T00:01:18;21.10;93.00
18412;DHT22;27097;51.738;19.472;2023-04-16T00:03:46;21.10;92.90
18412;DHT22;27097;51.738;19.472;2023-04-16T00:06:13;21.10;91.50
18412;DHT22;27097;51.738;19.472;2023-04-16T00:08:40;21.10;90.70
18412;DHT22;27097;51.738;19.472;2023-04-16T00:11:08;21.00;89.80
18412;DHT22;27097;51.738;19.472;2023-04-16T00:13:35;21.00;89.80
18412;DHT22;27097;51.738;19.472;2023-04-16T00:16:02;21.10;90.00
18412;DHT22;27097;51.738;19.472;2023-04-16T00:24:10;21.10;89.10
18412;DHT22;27097;51.738;19.472;2023-04-16T00:26:37;21.10;89.00
18412;DHT22;27097;51.738;19.472;2023-04-16T00:29:05;21.00;88.20
18412;DHT22;27097;51.738;19.472;2023-04-16T00:31:32;21.00;87.80
18412;DHT22;27097;51.738;19.472;2023-04-16T00:34:13;21.00;87.40
18412;DHT22;27097;51.738;19.472;2023-04-16T00:43:39;21.00;86.80
18412;DHT22;27097;51.738;19.472;2023-04-16T00:46:07;21.00;86.70
18412;DHT22;27097;51.738;19.472;2023-04-16T00:48:34;21.00;86.50
18412;DHT22;27097;51.738;19.472;2023-04-16T00:51:03;21.00;86.10
18412;DHT22;27097;51.738;19.472;2023-04-16T00:53:31;21.00;86.30
18412;DHT22;27097;51.738;19.472;2023-04-16T00:55:58;21.00;85.80
18412;DHT22;27097;51.738;19.472;2023-04-16T00:58:26;21.00;86.10
18412;DHT22;27097;51.738;19.472;2023-04-16T01:00:54;21.00;85.40
18412;DHT22;27097;51.738;19.472;2023-04-16T01:03:21;21.00;85.00
18412;DHT22;27097;51.738;19.472;2023-04-16T01:05:48;21.00;84.90
18412;DHT22;27097;51.738;19.472;2023-04-16T01:08:16;21.00;84.80
18412;DHT22;27097;51.738;19.472;2023-04-16T01:10:43;21.00;84.70
18412;DHT22;27097;51.738;19.472;2023-04-16T01:13:11;21.00;84.70
18412;DHT22;27097;51.738;19.472;2023-04-16T01:15:38;21.00;84.00
18412;DHT22;27097;51.738;19.472;2023-04-16T01:18:14;21.00;84.50
18412;DHT22;27097;51.738;19.472;2023-04-16T01:20:42;20.90;84.50
18412;DHT22;27097;51.738;19.472;2023-04-16T01:23:09;20.90;85.30
18412;DHT22;27097;51.738;19.472;2023-04-16T01:25:36;20.90;84.60
18412;DHT22;27097;51.738;19.472;2023-04-16T01:28:04;20.90;84.90
18412;DHT22;27097;51.738;19.472;2023-04-16T01:30:31;21.00;84.10
18412;DHT22;27097;51.738;19.472;2023-04-16T01:32:57;20.90;83.80
18412;DHT22;27097;51.738;19.472;2023-04-16T01:35:24;20.90;83.30
18412;DHT22;27097;51.738;19.472;2023-04-16T01:37:53;20.90;83.90
18412;DHT22;27097;51.738;19.472;2023-04-16T01:40:20;20.90;83.70
18412;DHT22;27097;51.738;19.472;2023-04-16T01:42:46;20.90;83.00
18412;DHT22;27097;51.738;19.472;2023-04-16T01:45:13;20.90;83.00
18412;DHT22;27097;51.738;19.472;2023-04-16T01:47:40;20.90;84.00
18412;DHT22;27097;51.738;19.472;2023-04-16T01:50:08;20.90;83.90
18412;DHT22;27097;51.738;19.472;2023-04-16T01:52:35;20.90;83.10
18412;DHT22;27097;51.738;19.472;2023-04-16T01:55:04;20.90;83.10
18412;DHT22;27097;51.738;19.472;2023-04-16T01:57:31;20.90;83.20
18412;DHT22;27097;51.738;19.472;2023-04-16T01:59:58;20.90;83.80
18412;DHT22;27097;51.738;19.472;2023-04-16T02:02:25;20.90;83.20
18412;DHT22;27097;51.738;19.472;2023-04-16T02:04:54;20.90;83.90
18412;DHT22;27097;51.738;19.472;2023-04-16T02:07:21;20.90;82.90
18412;DHT22;27097;51.738;19.472;2023-04-16T02:09:47;20.90;83.00
18412;DHT22;27097;51.738;19.472;2023-04-16T02:12:17;20.90;83.70
18412;DHT22;27097;51.738;19.472;2023-04-16T02:14:44;20.90;82.60
18412;DHT22;27097;51.738;19.472;2023-04-16T02:17:11;20.90;82.50
18412;DHT22;27097;51.738;19.472;2023-04-16T02:19:37;20.90;82.40
18412;DHT22;27097;51.738;19.472;2023-04-16T02:22:04;20.80;82.60
18412;DHT22;27097;51.738;19.472;2023-04-16T02:24:31;20.80;82.10
18412;DHT22;27097;51.738;19.472;2023-04-16T02:26:58;20.80;83.60
18412;DHT22;27097;51.738;19.472;2023-04-16T02:29:26;20.80;82.30
18412;DHT22;27097;51.738;19.472;2023-04-16T02:31:53;20.80;82.70
18412;DHT22;27097;51.738;19.472;2023-04-16T02:34:20;20.80;82.80
18412;DHT22;27097;51.738;19.472;2023-04-16T02:36:47;20.80;82.20
18412;DHT22;27097;51.738;19.472;2023-04-16T02:39:14;20.80;81.80
18412;DHT22;27097;51.738;19.472;2023-04-16T02:41:41;20.80;82.20
18412;DHT22;27097;51.738;19.472;2023-04-16T02:44:08;20.80;81.50
18412;DHT22;27097;51.738;19.472;2023-04-16T02:46:36;20.80;81.90
18412;DHT22;27097;51.738;19.472;2023-04-16T02:49:03;20.80;81.40
18412;DHT22;27097;51.738;19.472;2023-04-16T02:51:30;20.80;82.30
18412;DHT22;27097;51.738;19.472;2023-04-16T02:53:57;20.80;82.20
18412;DHT22;27097;51.738;19.472;2023-04-16T02:56:24;20.80;82.00
18412;DHT22;27097;51.738;19.472;2023-04-16T02:58:51;20.80;81.40
18412;DHT22;27097;51.738;19.472;2023-04-16T03:01:18;20.80;81.40
18412;DHT22;27097;51.738;19.472;2023-04-16T03:03:48;20.80;81.40
18412;DHT22;27097;51.738;19.472;2023-04-16T03:06:15;20.80;81.80
18412;DHT22;27097;51.738;19.472;2023-04-16T03:08:42;20.80;80.90
18412;DHT22;27097;51.738;19.472;2023-04-16T03:11:09;20.70;81.30
18412;DHT22;27097;51.738;19.472;2023-04-16T03:13:36;20.70;81.20
18412;DHT22;27097;51.738;19.472;2023-04-16T03:16:03;20.70;81.60
18412;DHT22;27097;51.738;19.472;2023-04-16T03:18:31;20.70;81.30
18412;DHT22;27097;51.738;19.472;2023-04-16T03:20:59;20.70;80.90
18412;DHT22;27097;51.738;19.472;2023-04-16T03:23:26;20.70;81.10
18412;DHT22;27097;51.738;19.472;2023-04-16T03:25:53;20.70;82.00
18412;DHT22;27097;51.738;19.472;2023-04-16T03:28:20;20.70;82.00
18412;DHT22;27097;51.738;19.472;2023-04-16T03:30:50;20.70;82.30
18412;DHT22;27097;51.738;19.472;2023-04-16T03:33:18;20.70;81.80
18412;DHT22;27097;51.738;19.472;2023-04-16T03:35:45;20.70;81.80
18412;DHT22;27097;51.738;19.472;2023-04-16T03:38:13;20.70;81.70
18412;DHT22;27097;51.738;19.472;2023-04-16T03:40:40;20.70;81.40
18412;DHT22;27097;51.738;19.472;2023-04-16T03:43:07;20.70;81.40
18412;DHT22;27097;51.738;19.472;2023-04-16T03:45:34;20.70;81.30
18412;DHT22;27097;51.738;19.472;2023-04-16T03:48:01;20.70;81.30
18412;DHT22;27097;51.738;19.472;2023-04-16T03:50:27;20.70;81.20
18412;DHT22;27097;51.738;19.472;2023-04-16T03:52:54;20.70;81.90
18412;DHT22;27097;51.738;19.472;2023-04-16T03:55:23;20.70;82.30
18412;DHT22;27097;51.738;19.472;2023-04-16T03:57:50;20.70;82.60
18412;DHT22;27097;51.738;19.472;2023-04-16T04:00:17;20.70;83.30
18412;DHT22;27097;51.738;19.472;2023-04-16T04:02:53;20.70;81.50
18412;DHT22;27097;51.738;19.472;2023-04-16T04:05:41;20.70;81.70
18412;DHT22;27097;51.738;19.472;2023-04-16T04:08:09;20.70;81.70
18412;DHT22;27097;51.738;19.472;2023-04-16T04:10:43;20.70;81.70
18412;DHT22;27097;51.738;19.472;2023-04-16T04:13:15;20.70;81.80
18412;DHT22;27097;51.738;19.472;2023-04-16T04:15:43;20.70;81.40
18412;DHT22;27097;51.738;19.472;2023-04-16T04:18:10;20.70;81.70
18412;DHT22;27097;51.738;19.472;2023-04-16T04:20:38;20.70;81.60
18412;DHT22;27097;51.738;19.472;2023-04-16T04:23:05;20.70;81.40
18412;DHT22;27097;51.738;19.472;2023-04-16T04:25:32;20.70;81.50
18412;DHT22;27097;51.738;19.472;2023-04-16T04:28:00;20.70;81.80
18412;DHT22;27097;51.738;19.472;2023-04-16T04:30:28;20.70;81.80
18412;DHT22;27097;51.738;19.472;2023-04-16T04:32:55;20.70;81.40
18412;DHT22;27097;51.738;19.472;2023-04-16T04:35:26;20.70;81.60
18412;DHT22;27097;51.738;19.472;2023-04-16T04:37:52;20.70;81.80
18412;DHT22;27097;51.738;19.472;2023-04-16T04:40:24;20.70;82.00
18412;DHT22;27097;51.738;19.472;2023-04-16T04:42:50;20.70;81.90
18412;DHT22;27097;51.738;19.472;2023-04-16T04:45:19;20.70;81.40
18412;DHT22;27097;51.738;19.472;2023-04-16T04:48:00;20.70;81.70
18412;DHT22;27097;51.738;19.472;2023-04-16T04:50:27;20.70;82.50
18412;DHT22;27097;51.738;19.472;2023-04-16T04:52:54;20.70;82.90
18412;DHT22;27097;51.738;19.472;2023-04-16T04:55:20;20.70;82.50
18412;DHT22;27097;51.738;19.472;2023-04-16T04:57:47;20.70;82.60
18412;DHT22;27097;51.738;19.472;2023-04-16T05:00:34;20.60;82.50
18412;DHT22;27097;51.738;19.472;2023-04-16T05:03:03;20.70;82.20
18412;DHT22;27097;51.738;19.472;2023-04-16T05:05:30;20.70;82.20
18412;DHT22;27097;51.738;19.472;2023-04-16T05:07:57;20.70;82.50
18412;DHT22;27097;51.738;19.472;2023-04-16T05:10:25;20.70;82.10
18412;DHT22;27097;51.738;19.472;2023-04-16T05:12:52;20.70;82.60
18412;DHT22;27097;51.738;19.472;2023-04-16T05:15:19;20.70;82.50
18412;DHT22;27097;51.738;19.472;2023-04-16T05:17:47;20.70;82.60
18412;DHT22;27097;51.738;19.472;2023-04-16T05:20:14;20.70;83.10
18412;DHT22;27097;51.738;19.472;2023-04-16T05:22:41;20.70;83.00
18412;DHT22;27097;51.738;19.472;2023-04-16T05:25:08;20.70;82.60
18412;DHT22;27097;51.738;19.472;2023-04-16T05:27:35;20.70;83.00
18412;DHT22;27097;51.738;19.472;2023-04-16T05:30:03;20.70;83.00
18412;DHT22;27097;51.738;19.472;2023-04-16T05:32:30;20.70;83.00
18412;DHT22;27097;51.738;19.472;2023-04-16T05:34:58;20.70;82.90
18412;DHT22;27097;51.738;19.472;2023-04-16T05:37:25;20.70;83.00
18412;DHT22;27097;51.738;19.472;2023-04-16T05:39:52;20.70;83.00
18412;DHT22;27097;51.738;19.472;2023-04-16T05:42:18;20.70;82.90
18412;DHT22;27097;51.738;19.472;2023-04-16T05:44:45;20.70;83.20
18412;DHT22;27097;51.738;19.472;2023-04-16T05:47:12;20.70;82.80
18412;DHT22;27097;51.738;19.472;2023-04-16T05:49:39;20.70;82.20
18412;DHT22;27097;51.738;19.472;2023-04-16T05:52:07;20.70;82.90
18412;DHT22;27097;51.738;19.472;2023-04-16T05:54:34;20.70;80.70
18412;DHT22;27097;51.738;19.472;2023-04-16T05:57:01;20.70;79.90
18412;DHT22;27097;51.738;19.472;2023-04-16T05:59:28;20.70;80.50
18412;DHT22;27097;51.738;19.472;2023-04-16T06:01:55;20.70;80.30
18412;DHT22;27097;51.738;19.472;2023-04-16T06:04:22;20.70;80.30
18412;DHT22;27097;51.738;19.472;2023-04-16T06:06:49;20.70;80.10
18412;DHT22;27097;51.738;19.472;2023-04-16T06:09:17;20.70;80.90
18412;DHT22;27097;51.738;19.472;2023-04-16T06:11:44;20.70;80.60
18412;DHT22;27097;51.738;19.472;2023-04-16T06:14:11;20.80;81.00
18412;DHT22;27097;51.738;19.472;2023-04-16T06:16:37;20.80;81.90
18412;DHT22;27097;51.738;19.472;2023-04-16T06:19:04;20.70;82.50
18412;DHT22;27097;51.738;19.472;2023-04-16T06:21:31;20.70;82.40
18412;DHT22;27097;51.738;19.472;2023-04-16T06:23:58;20.70;82.90
18412;DHT22;27097;51.738;19.472;2023-04-16T06:26:26;20.70;83.60
18412;DHT22;27097;51.738;19.472;2023-04-16T06:28:53;20.70;82.70
18412;DHT22;27097;51.738;19.472;2023-04-16T06:31:20;20.70;82.10
18412;DHT22;27097;51.738;19.472;2023-04-16T06:33:47;20.70;83.60
18412;DHT22;27097;51.738;19.472;2023-04-16T06:36:14;20.70;83.30
18412;DHT22;27097;51.738;19.472;2023-04-16T06:38:41;20.70;82.70
18412;DHT22;27097;51.738;19.472;2023-04-16T06:41:08;20.70;82.00
18412;DHT22;27097;51.738;19.472;2023-04-16T06:43:36;20.70;82.50
18412;DHT22;27097;51.738;19.472;2023-04-16T06:46:03;20.80;83.00
18412;DHT22;27097;51.738;19.472;2023-04-16T06:48:30;20.80;83.60
18412;DHT22;27097;51.738;19.472;2023-04-16T06:50:57;20.80;83.60
18412;DHT22;27097;51.738;19.472;2023-04-16T06:53:24;20.70;83.80
18412;DHT22;27097;51.738;19.472;2023-04-16T06:55:51;20.80;83.90
18412;DHT22;27097;51.738;19.472;2023-04-16T06:58:18;20.80;85.10
18412;DHT22;27097;51.738;19.472;2023-04-16T07:00:46;20.80;86.60
18412;DHT22;27097;51.738;19.472;2023-04-16T07:03:13;20.80;88.70
18412;DHT22;27097;51.738;19.472;2023-04-16T07:05:40;20.80;90.80
18412;DHT22;27097;51.738;19.472;2023-04-16T07:08:06;20.80;91.60
18412;DHT22;27097;51.738;19.472;2023-04-16T07:10:33;20.80;92.50
18412;DHT22;27097;51.738;19.472;2023-04-16T07:13:00;20.80;93.10
18412;DHT22;27097;51.738;19.472;2023-04-16T07:15:27;20.90;93.20
18412;DHT22;27097;51.738;19.472;2023-04-16T07:17:55;20.90;93.00
18412;DHT22;27097;51.738;19.472;2023-04-16T07:20:25;20.90;92.80
18412;DHT22;27097;51.738;19.472;2023-04-16T07:22:52;20.90;92.80
18412;DHT22;27097;51.738;19.472;2023-04-16T07:25:19;21.00;92.70
18412;DHT22;27097;51.738;19.472;2023-04-16T07:27:46;21.00;92.60
18412;DHT22;27097;51.738;19.472;2023-04-16T07:30:13;21.00;92.50
18412;DHT22;27097;51.738;19.472;2023-04-16T07:32:40;21.00;92.30
18412;DHT22;27097;51.738;19.472;2023-04-16T07:35:08;21.00;92.20
18412;DHT22;27097;51.738;19.472;2023-04-16T07:37:35;21.00;92.10
18412;DHT22;27097;51.738;19.472;2023-04-16T07:40:02;21.00;92.00
18412;DHT22;27097;51.738;19.472;2023-04-16T07:42:29;21.00;91.80
18412;DHT22;27097;51.738;19.472;2023-04-16T07:44:56;21.00;91.40
18412;DHT22;27097;51.738;19.472;2023-04-16T07:47:23;21.00;91.30
18412;DHT22;27097;51.738;19.472;2023-04-16T07:49:51;21.00;91.00
18412;DHT22;27097;51.738;19.472;2023-04-16T07:52:19;21.00;90.70
18412;DHT22;27097;51.738;19.472;2023-04-16T07:54:46;21.00;90.20
18412;DHT22;27097;51.738;19.472;2023-04-16T07:57:13;21.10;90.30
18412;DHT22;27097;51.738;19.472;2023-04-16T07:59:41;21.10;90.30
18412;DHT22;27097;51.738;19.472;2023-04-16T08:02:09;21.10;90.20
18412;DHT22;27097;51.738;19.472;2023-04-16T08:04:38;21.10;90.10
18412;DHT22;27097;51.738;19.472;2023-04-16T08:07:08;21.10;89.50
18412;DHT22;27097;51.738;19.472;2023-04-16T08:09:46;21.10;89.40
18412;DHT22;27097;51.738;19.472;2023-04-16T08:12:13;21.10;88.40
18412;DHT22;27097;51.738;19.472;2023-04-16T08:14:40;21.10;86.50
18412;DHT22;27097;51.738;19.472;2023-04-16T08:17:09;21.10;87.30
18412;DHT22;27097;51.738;19.472;2023-04-16T08:19:36;21.10;87.20
18412;DHT22;27097;51.738;19.472;2023-04-16T08:22:03;21.10;87.20
18412;DHT22;27097;51.738;19.472;2023-04-16T08:24:30;21.10;88.90
18412;DHT22;27097;51.738;19.472;2023-04-16T08:26:59;21.10;87.10
18412;DHT22;27097;51.738;19.472;2023-04-16T08:29:25;21.10;88.10
18412;DHT22;27097;51.738;19.472;2023-04-16T08:31:52;21.10;87.50
18412;DHT22;27097;51.738;19.472;2023-04-16T08:34:19;21.00;86.70
18412;DHT22;27097;51.738;19.472;2023-04-16T08:36:47;21.10;86.60
18412;DHT22;27097;51.738;19.472;2023-04-16T08:39:15;21.10;87.00
18412;DHT22;27097;51.738;19.472;2023-04-16T08:41:44;21.10;87.10
18412;DHT22;27097;51.738;19.472;2023-04-16T08:44:19;21.10;87.90
18412;DHT22;27097;51.738;19.472;2023-04-16T08:46:47;21.10;87.40
18412;DHT22;27097;51.738;19.472;2023-04-16T08:49:16;21.10;87.40
18412;DHT22;27097;51.738;19.472;2023-04-16T08:51:49;21.10;86.80
18412;DHT22;27097;51.738;19.472;2023-04-16T08:54:24;21.10;87.20
18412;DHT22;27097;51.738;19.472;2023-04-16T08:56:54;21.10;86.30
18412;DHT22;27097;51.738;19.472;2023-04-16T08:59:25;21.10;86.70
18412;DHT22;27097;51.738;19.472;2023-04-16T09:01:55;21.10;86.70
18412;DHT22;27097;51.738;19.472;2023-04-16T09:04:25;21.10;86.30
18412;DHT22;27097;51.738;19.472;2023-04-16T09:06:54;21.20;86.50
18412;DHT22;27097;51.738;19.472;2023-04-16T09:09:22;21.20;86.10
18412;DHT22;27097;51.738;19.472;2023-04-16T09:11:50;21.20;86.00
18412;DHT22;27097;51.738;19.472;2023-04-16T09:14:19;21.20;86.00
18412;DHT22;27097;51.738;19.472;2023-04-16T09:17:01;21.20;85.90
18412;DHT22;27097;51.738;19.472;2023-04-16T09:19:29;21.20;85.70
18412;DHT22;27097;51.738;19.472;2023-04-16T09:22:16;21.30;85.30
18412;DHT22;27097;51.738;19.472;2023-04-16T09:24:43;21.30;85.50
18412;DHT22;27097;51.738;19.472;2023-04-16T09:27:11;21.30;84.60
18412;DHT22;27097;51.738;19.472;2023-04-16T09:29:39;21.30;84.60
18412;DHT22;27097;51.738;19.472;2023-04-16T09:32:09;21.30;85.40
18412;DHT22;27097;51.738;19.472;2023-04-16T09:34:55;21.40;85.60
18412;DHT22;27097;51.738;19.472;2023-04-16T09:37:26;21.30;84.90
18412;DHT22;27097;51.738;19.472;2023-04-16T09:39:55;21.30;84.90
18412;DHT22;27097;51.738;19.472;2023-04-16T09:42:23;21.30;85.50
18412;DHT22;27097;51.738;19.472;2023-04-16T09:44:52;21.40;86.10
18412;DHT22;27097;51.738;19.472;2023-04-16T09:47:21;21.40;85.90
18412;DHT22;27097;51.738;19.472;2023-04-16T09:49:48;21.40;85.20
18412;DHT22;27097;51.738;19.472;2023-04-16T09:52:19;21.40;85.10
18412;DHT22;27097;51.738;19.472;2023-04-16T09:54:50;21.40;84.60
18412;DHT22;27097;51.738;19.472;2023-04-16T09:57:18;21.40;83.90
18412;DHT22;27097;51.738;19.472;2023-04-16T09:59:47;21.50;84.00
18412;DHT22;27097;51.738;19.472;2023-04-16T10:02:14;21.50;83.70
18412;DHT22;27097;51.738;19.472;2023-04-16T10:04:49;21.50;84.60
18412;DHT22;27097;51.738;19.472;2023-04-16T10:07:19;21.50;84.70
18412;DHT22;27097;51.738;19.472;2023-04-16T10:09:47;21.60;86.50
18412;DHT22;27097;51.738;19.472;2023-04-16T10:12:17;21.50;88.10
18412;DHT22;27097;51.738;19.472;2023-04-16T10:14:44;21.50;87.70
18412;DHT22;27097;51.738;19.472;2023-04-16T10:17:11;21.50;87.60
18412;DHT22;27097;51.738;19.472;2023-04-16T10:19:39;21.50;87.60
18412;DHT22;27097;51.738;19.472;2023-04-16T10:22:08;21.50;87.70
18412;DHT22;27097;51.738;19.472;2023-04-16T10:24:35;21.50;87.70
18412;DHT22;27097;51.738;19.472;2023-04-16T10:27:05;21.50;87.80
18412;DHT22;27097;51.738;19.472;2023-04-16T10:29:33;21.50;88.60
18412;DHT22;27097;51.738;19.472;2023-04-16T10:32:00;21.50;88.70
18412;DHT22;27097;51.738;19.472;2023-04-16T10:34:29;21.50;88.80
18412;DHT22;27097;51.738;19.472;2023-04-16T10:36:57;21.50;89.20
18412;DHT22;27097;51.738;19.472;2023-04-16T10:39:27;21.50;89.40
18412;DHT22;27097;51.738;19.472;2023-04-16T10:42:06;21.50;89.90
18412;DHT22;27097;51.738;19.472;2023-04-16T10:44:34;21.50;90.10
18412;DHT22;27097;51.738;19.472;2023-04-16T10:47:01;21.50;90.20
18412;DHT22;27097;51.738;19.472;2023-04-16T10:49:28;21.50;90.30
18412;DHT22;27097;51.738;19.472;2023-04-16T10:51:56;21.50;90.40
18412;DHT22;27097;51.738;19.472;2023-04-16T10:54:25;21.50;90.60
18412;DHT22;27097;51.738;19.472;2023-04-16T10:56:55;21.50;90.70
18412;DHT22;27097;51.738;19.472;2023-04-16T10:59:23;21.50;90.90
18412;DHT22;27097;51.738;19.472;2023-04-16T11:01:51;21.50;90.70
18412;DHT22;27097;51.738;19.472;2023-04-16T11:04:31;21.50;90.80
18412;DHT22;27097;51.738;19.472;2023-04-16T11:07:03;21.50;90.90
18412;DHT22;27097;51.738;19.472;2023-04-16T11:09:51;21.50;91.20
18412;DHT22;27097;51.738;19.472;2023-04-16T11:12:19;21.50;91.10
18412;DHT22;27097;51.738;19.472;2023-04-16T11:14:47;21.50;91.30
18412;DHT22;27097;51.738;19.472;2023-04-16T11:17:14;21.60;91.20
18412;DHT22;27097;51.738;19.472;2023-04-16T11:19:42;21.50;91.10
18412;DHT22;27097;51.738;19.472;2023-04-16T11:22:15;21.50;90.40
18412;DHT22;27097;51.738;19.472;2023-04-16T11:24:43;21.60;90.90
18412;DHT22;27097;51.738;19.472;2023-04-16T11:27:12;21.60;90.60
18412;DHT22;27097;51.738;19.472;2023-04-16T11:29:39;21.60;90.40
18412;DHT22;27097;51.738;19.472;2023-04-16T11:32:07;21.60;90.00
18412;DHT22;27097;51.738;19.472;2023-04-16T11:34:41;21.70;89.90
18412;DHT22;27097;51.738;19.472;2023-04-16T11:37:08;21.70;90.60
18412;DHT22;27097;51.738;19.472;2023-04-16T11:39:47;21.70;91.10
18412;DHT22;27097;51.738;19.472;2023-04-16T11:42:19;21.70;91.30
18412;DHT22;27097;51.738;19.472;2023-04-16T11:44:51;21.70;91.40
18412;DHT22;27097;51.738;19.472;2023-04-16T11:47:19;21.70;91.40
18412;DHT22;27097;51.738;19.472;2023-04-16T11:49:46;21.70;91.60
18412;DHT22;27097;51.738;19.472;2023-04-16T11:52:14;21.70;91.40
18412;DHT22;27097;51.738;19.472;2023-04-16T11:54:50;21.70;90.60
18412;DHT22;27097;51.738;19.472;2023-04-16T11:57:25;21.70;91.10
18412;DHT22;27097;51.738;19.472;2023-04-16T11:59:54;21.70;91.40
18412;DHT22;27097;51.738;19.472;2023-04-16T12:02:37;21.70;90.90
18412;DHT22;27097;51.738;19.472;2023-04-16T12:05:06;21.70;91.40
18412;DHT22;27097;51.738;19.472;2023-04-16T12:07:42;21.70;91.60
18412;DHT22;27097;51.738;19.472;2023-04-16T12:10:10;21.70;91.50
18412;DHT22;27097;51.738;19.472;2023-04-16T12:12:39;21.70;90.60
18412;DHT22;27097;51.738;19.472;2023-04-16T12:15:06;21.80;90.60
18412;DHT22;27097;51.738;19.472;2023-04-16T12:17:34;21.80;90.80
18412;DHT22;27097;51.738;19.472;2023-04-16T12:20:03;21.80;90.70
18412;DHT22;27097;51.738;19.472;2023-04-16T12:22:32;21.90;90.70
18412;DHT22;27097;51.738;19.472;2023-04-16T12:25:00;21.90;90.40
18412;DHT22;27097;51.738;19.472;2023-04-16T12:27:43;22.00;90.10
18412;DHT22;27097;51.738;19.472;2023-04-16T12:30:12;22.10;89.60
18412;DHT22;27097;51.738;19.472;2023-04-16T12:32:40;22.20;88.60
18412;DHT22;27097;51.738;19.472;2023-04-16T12:35:08;22.20;88.20
18412;DHT22;27097;51.738;19.472;2023-04-16T12:37:34;22.10;87.70
18412;DHT22;27097;51.738;19.472;2023-04-16T12:40:01;22.10;87.20
18412;DHT22;27097;51.738;19.472;2023-04-16T12:42:30;22.10;87.10
18412;DHT22;27097;51.738;19.472;2023-04-16T12:45:02;22.20;87.20
18412;DHT22;27097;51.738;19.472;2023-04-16T12:47:29;22.10;86.50
18412;DHT22;27097;51.738;19.472;2023-04-16T12:49:56;22.20;86.30
18412;DHT22;27097;51.738;19.472;2023-04-16T12:52:24;22.30;85.60
18412;DHT22;27097;51.738;19.472;2023-04-16T12:54:51;22.40;85.00
18412;DHT22;27097;51.738;19.472;2023-04-16T12:57:18;22.40;84.20
18412;DHT22;27097;51.738;19.472;2023-04-16T12:59:45;22.50;84.00
18412;DHT22;27097;51.738;19.472;2023-04-16T13:02:13;22.50;83.80
18412;DHT22;27097;51.738;19.472;2023-04-16T13:04:41;22.50;83.30
18412;DHT22;27097;51.738;19.472;2023-04-16T13:07:07;22.50;83.10
18412;DHT22;27097;51.738;19.472;2023-04-16T13:09:35;22.50;83.20
18412;DHT22;27097;51.738;19.472;2023-04-16T13:12:02;22.50;83.20
18412;DHT22;27097;51.738;19.472;2023-04-16T13:14:29;22.50;83.30
18412;DHT22;27097;51.738;19.472;2023-04-16T13:16:56;22.50;83.70
18412;DHT22;27097;51.738;19.472;2023-04-16T13:19:24;22.40;83.60
18412;DHT22;27097;51.738;19.472;2023-04-16T13:21:51;22.40;83.60
18412;DHT22;27097;51.738;19.472;2023-04-16T13:24:18;22.40;83.80
18412;DHT22;27097;51.738;19.472;2023-04-16T13:26:45;22.40;83.80
18412;DHT22;27097;51.738;19.472;2023-04-16T13:29:12;22.40;84.70
18412;DHT22;27097;51.738;19.472;2023-04-16T13:31:39;22.30;84.10
18412;DHT22;27097;51.738;19.472;2023-04-16T13:34:06;22.30;84.00
18412;DHT22;27097;51.738;19.472;2023-04-16T13:36:34;22.30;84.10
18412;DHT22;27097;51.738;19.472;2023-04-16T13:39:01;22.30;84.10
18412;DHT22;27097;51.738;19.472;2023-04-16T13:41:29;22.30;84.00
18412;DHT22;27097;51.738;19.472;2023-04-16T13:43:56;22.30;84.00
18412;DHT22;27097;51.738;19.472;2023-04-16T13:46:23;22.30;84.30
18412;DHT22;27097;51.738;19.472;2023-04-16T13:48:51;22.30;84.10
18412;DHT22;27097;51.738;19.472;2023-04-16T13:51:18;22.30;84.30
18412;DHT22;27097;51.738;19.472;2023-04-16T13:53:47;22.30;84.30
18412;DHT22;27097;51.738;19.472;2023-04-16T13:56:13;22.30;84.20
18412;DHT22;27097;51.738;19.472;2023-04-16T13:58:41;22.30;84.20
18412;DHT22;27097;51.738;19.472;2023-04-16T14:01:09;22.30;84.50
18412;DHT22;27097;51.738;19.472;2023-04-16T14:03:36;22.30;84.60
18412;DHT22;27097;51.738;19.472;2023-04-16T14:06:03;22.30;84.50
18412;DHT22;27097;51.738;19.472;2023-04-16T14:08:31;22.30;84.20
18412;DHT22;27097;51.738;19.472;2023-04-16T14:10:59;22.30;84.10
18412;DHT22;27097;51.738;19.472;2023-04-16T14:13:26;22.30;84.20
18412;DHT22;27097;51.738;19.472;2023-04-16T14:15:53;22.30;84.30
18412;DHT22;27097;51.738;19.472;2023-04-16T14:18:21;22.30;84.80
18412;DHT22;27097;51.738;19.472;2023-04-16T14:20:48;22.30;84.50
18412;DHT22;27097;51.738;19.472;2023-04-16T14:23:15;22.30;84.60
18412;DHT22;27097;51.738;19.472;2023-04-16T14:25:42;22.30;84.60
18412;DHT22;27097;51.738;19.472;2023-04-16T14:28:10;22.20;84.00
18412;DHT22;27097;51.738;19.472;2023-04-16T14:30:36;22.30;84.20
18412;DHT22;27097;51.738;19.472;2023-04-16T14:33:04;22.20;84.30
18412;DHT22;27097;51.738;19.472;2023-04-16T14:35:31;22.20;84.00
18412;DHT22;27097;51.738;19.472;2023-04-16T14:37:58;22.20;84.40
18412;DHT22;27097;51.738;19.472;2023-04-16T14:40:26;22.20;86.10
18412;DHT22;27097;51.738;19.472;2023-04-16T14:42:53;22.30;86.50
18412;DHT22;27097;51.738;19.472;2023-04-16T14:45:22;22.30;86.90
18412;DHT22;27097;51.738;19.472;2023-04-16T14:47:53;22.30;86.80
18412;DHT22;27097;51.738;19.472;2023-04-16T14:50:20;22.30;87.30
18412;DHT22;27097;51.738;19.472;2023-04-16T14:52:47;22.30;87.60
18412;DHT22;27097;51.738;19.472;2023-04-16T14:55:14;22.30;87.80
18412;DHT22;27097;51.738;19.472;2023-04-16T14:57:41;22.30;87.80
18412;DHT22;27097;51.738;19.472;2023-04-16T15:00:09;22.30;88.10
18412;DHT22;27097;51.738;19.472;2023-04-16T15:02:38;22.30;87.30
18412;DHT22;27097;51.738;19.472;2023-04-16T15:05:11;22.30;86.90
18412;DHT22;27097;51.738;19.472;2023-04-16T15:07:44;22.30;86.50
18412;DHT22;27097;51.738;19.472;2023-04-16T15:10:12;22.30;86.40
18412;DHT22;27097;51.738;19.472;2023-04-16T15:12:39;22.30;86.30
18412;DHT22;27097;51.738;19.472;2023-04-16T15:15:07;22.30;86.00
18412;DHT22;27097;51.738;19.472;2023-04-16T15:17:34;22.30;84.80
18412;DHT22;27097;51.738;19.472;2023-04-16T15:20:02;22.30;84.10
18412;DHT22;27097;51.738;19.472;2023-04-16T15:22:32;22.30;84.50
18412;DHT22;27097;51.738;19.472;2023-04-16T15:24:59;22.30;84.30
18412;DHT22;27097;51.738;19.472;2023-04-16T15:27:26;22.30;84.70
18412;DHT22;27097;51.738;19.472;2023-04-16T15:29:53;22.30;84.00
18412;DHT22;27097;51.738;19.472;2023-04-16T15:32:20;22.30;83.30
18412;DHT22;27097;51.738;19.472;2023-04-16T15:34:47;22.30;82.50